createdAt,value
2022-10-22T00:01:27.386Z,13.70
2022-10-22T00:04:34.379Z,13.55
2022-10-22T00:07:37.563Z,13.90
2022-10-22T00:10:39.696Z,14.04
2022-10-22T00:13:41.722Z,12.70
2022-10-22T00:16:43.725Z,12.75
2022-10-22T00:19:45.610Z,13.01
2022-10-22T00:22:47.547Z,12.95
2022-10-22T00:25:49.388Z,13.49
2022-10-22T00:28:51.280Z,12.76
2022-10-22T00:31:53.145Z,12.76
2022-10-22T00:34:54.971Z,12.80
2022-10-22T00:37:56.809Z,13.11
2022-10-22T00:40:58.706Z,12.94
2022-10-22T00:44:01.470Z,13.52
2022-10-22T00:47:03.418Z,13.23
2022-10-22T00:50:06.673Z,13.48
2022-10-22T00:53:13.309Z,13.47
2022-10-22T00:56:15.190Z,13.85
2022-10-22T00:59:17.122Z,12.97
2022-10-22T01:02:19.157Z,12.71
2022-10-22T01:05:21.431Z,13.64
2022-10-22T01:08:46.474Z,13.43
2022-10-22T01:11:51.344Z,13.17
2022-10-22T01:14:58.973Z,13.66
2022-10-22T01:18:08.230Z,13.36
2022-10-22T01:21:30.789Z,13.35
2022-10-22T01:24:32.806Z,14.20
2022-10-22T01:27:43.747Z,13.48
2022-10-22T01:30:45.781Z,13.32
2022-10-22T01:33:47.617Z,13.00
2022-10-22T01:36:49.509Z,13.60
2022-10-22T01:39:51.315Z,13.27
2022-10-22T01:42:56.766Z,12.85
2022-10-22T01:45:59.274Z,12.66
2022-10-22T01:49:16.637Z,12.64
2022-10-22T01:52:26.529Z,12.87
2022-10-22T01:55:36.393Z,12.77
2022-10-22T01:58:57.182Z,13.34
2022-10-22T02:02:05.091Z,13.18
2022-10-22T02:05:08.393Z,13.48
2022-10-22T02:08:18.310Z,13.31
2022-10-22T02:11:20.391Z,13.28
2022-10-22T02:14:22.341Z,13.64
2022-10-22T02:17:24.269Z,13.35
2022-10-22T02:20:27.508Z,13.34
2022-10-22T02:23:29.415Z,13.28
2022-10-22T02:26:39.655Z,13.68
2022-10-22T02:29:43.988Z,14.21
2022-10-22T02:32:56.832Z,14.37
2022-10-22T02:35:58.697Z,14.73
2022-10-22T02:39:00.678Z,13.44
2022-10-22T02:42:02.711Z,12.88
2022-10-22T02:45:04.960Z,12.61
2022-10-22T02:48:06.942Z,13.33
2022-10-22T02:51:08.775Z,12.78
2022-10-22T02:54:10.649Z,12.73
2022-10-22T02:57:12.760Z,12.97
2022-10-22T03:00:14.790Z,13.61
2022-10-22T03:03:16.601Z,14.15
2022-10-22T03:06:18.440Z,13.86
2022-10-22T03:09:22.761Z,13.62
2022-10-22T03:12:26.624Z,13.54
2022-10-22T03:18:35.254Z,12.99
2022-10-22T03:21:40.292Z,12.21
2022-10-22T03:24:42.831Z,12.20
2022-10-22T03:27:44.727Z,12.39
2022-10-22T03:30:46.627Z,12.13
2022-10-22T03:33:48.467Z,12.14
2022-10-22T03:36:50.359Z,12.95
2022-10-22T03:39:52.350Z,12.19
2022-10-22T03:42:54.182Z,11.99
2022-10-22T03:45:55.998Z,12.52
2022-10-22T03:48:57.801Z,12.22
2022-10-22T03:52:05.249Z,11.82
2022-10-22T03:55:07.689Z,12.30
2022-10-22T03:58:09.491Z,13.25
2022-10-22T04:01:12.082Z,13.53
2022-10-22T04:04:13.974Z,12.84
2022-10-22T04:07:15.933Z,13.24
2022-10-22T04:10:17.846Z,13.30
2022-10-22T04:13:19.635Z,13.60
2022-10-22T04:16:22.606Z,12.64
2022-10-22T04:19:25.746Z,11.80
2022-10-22T04:22:27.607Z,12.30
2022-10-22T04:25:29.854Z,12.16
2022-10-22T04:28:31.708Z,13.17
2022-10-22T04:31:33.616Z,13.13
2022-10-22T04:34:35.625Z,13.05
2022-10-22T04:37:37.797Z,12.79
2022-10-22T04:40:40.035Z,13.38
2022-10-22T04:43:42.158Z,13.14
2022-10-22T04:46:44.155Z,11.72
2022-10-22T04:49:45.978Z,12.98
2022-10-22T04:52:47.831Z,12.97
2022-10-22T04:55:49.693Z,12.21
2022-10-22T04:58:53.381Z,12.57
2022-10-22T05:01:55.190Z,13.10
2022-10-22T05:04:57.059Z,13.43
2022-10-22T05:07:59.013Z,11.96
2022-10-22T05:11:00.922Z,12.36
2022-10-22T05:14:04.502Z,13.22
2022-10-22T05:17:06.552Z,13.39
2022-10-22T05:20:08.733Z,13.23
2022-10-22T05:23:10.578Z,12.79
2022-10-22T05:26:13.133Z,12.93
2022-10-22T05:29:15.024Z,13.49
2022-10-22T05:32:16.974Z,12.89
2022-10-22T05:35:18.822Z,12.95
2022-10-22T05:38:20.708Z,13.28
2022-10-22T05:41:23.206Z,13.25
2022-10-22T05:44:24.997Z,12.96
2022-10-22T05:47:28.730Z,13.27
2022-10-22T05:50:30.748Z,12.74
2022-10-22T05:53:33.191Z,13.22
2022-10-22T05:56:35.291Z,13.32
2022-10-22T05:59:37.126Z,13.13
2022-10-22T06:02:39.210Z,13.88
2022-10-22T06:05:41.324Z,13.47
2022-10-22T06:08:43.328Z,12.87
2022-10-22T06:11:46.156Z,12.28
2022-10-22T06:14:47.995Z,13.26
2022-10-22T06:17:49.843Z,13.53
2022-10-22T06:20:51.867Z,14.32
2022-10-22T06:23:55.403Z,12.71
2022-10-22T06:26:57.329Z,13.06
2022-10-22T06:29:59.246Z,12.65
2022-10-22T06:33:01.086Z,12.78
2022-10-22T06:36:07.759Z,12.96
2022-10-22T06:39:11.362Z,14.08
2022-10-22T06:42:13.181Z,15.08
2022-10-22T06:45:15.026Z,15.36
2022-10-22T06:48:17.035Z,14.38
2022-10-22T06:51:19.393Z,14.94
2022-10-22T06:54:21.698Z,15.93
2022-10-22T06:57:23.692Z,15.05
2022-10-22T07:00:25.585Z,14.14
2022-10-22T07:03:27.646Z,15.06
2022-10-22T07:06:29.679Z,14.65
2022-10-22T07:09:31.518Z,14.95
2022-10-22T07:12:33.861Z,14.96
2022-10-22T07:15:35.730Z,14.83
2022-10-22T07:18:38.369Z,15.80
2022-10-22T07:21:40.437Z,15.37
2022-10-22T07:24:42.250Z,15.00
2022-10-22T07:27:44.183Z,14.03
2022-10-22T07:30:46.048Z,14.17
2022-10-22T07:33:48.022Z,15.61
2022-10-22T07:36:50.019Z,14.56
2022-10-22T07:39:52.117Z,14.55
2022-10-22T07:42:53.961Z,13.49
2022-10-22T07:45:56.029Z,15.03
2022-10-22T07:48:58.265Z,14.42
2022-10-22T07:52:00.198Z,15.11
2022-10-22T07:55:02.132Z,14.57
2022-10-22T07:58:04.549Z,13.70
2022-10-22T08:01:06.550Z,15.48
2022-10-22T08:04:09.819Z,14.89
2022-10-22T08:07:11.718Z,13.71
2022-10-22T08:10:13.625Z,15.03
2022-10-22T08:13:15.506Z,15.14
2022-10-22T08:16:17.313Z,13.87
2022-10-22T08:19:21.321Z,15.44
2022-10-22T08:22:23.183Z,14.56
2022-10-22T08:25:25.263Z,14.60
2022-10-22T08:28:28.864Z,15.87
2022-10-22T08:31:30.890Z,14.70
2022-10-22T08:34:33.104Z,15.32
2022-10-22T08:37:34.993Z,16.04
2022-10-22T08:40:38.892Z,16.06
2022-10-22T08:43:47.099Z,17.36
2022-10-22T08:46:51.197Z,17.13
2022-10-22T08:49:53.093Z,17.30
2022-10-22T08:52:55.611Z,16.04
2022-10-22T08:55:57.418Z,17.08
2022-10-22T08:58:59.256Z,17.18
2022-10-22T09:02:01.330Z,16.43
2022-10-22T09:05:12.892Z,15.94
2022-10-22T09:08:16.172Z,16.07
2022-10-22T09:11:18.193Z,16.83
2022-10-22T09:14:21.458Z,17.61
2022-10-22T09:17:49.741Z,16.97
2022-10-22T09:21:03.880Z,17.20
2022-10-22T09:24:05.901Z,18.12
2022-10-22T09:27:12.154Z,16.83
2022-10-22T09:30:21.361Z,15.98
2022-10-22T09:33:27.723Z,16.48
2022-10-22T09:36:30.227Z,16.76
2022-10-22T09:39:33.017Z,16.82
2022-10-22T09:42:35.238Z,17.11
2022-10-22T09:45:37.092Z,16.58
2022-10-22T09:48:42.508Z,16.28
2022-10-22T09:51:51.346Z,15.75
2022-10-22T09:54:53.242Z,16.63
2022-10-22T09:57:55.798Z,16.22
2022-10-22T10:00:58.553Z,16.25
2022-10-22T10:04:11.057Z,16.57
2022-10-22T10:07:17.723Z,17.40
2022-10-22T10:10:21.556Z,16.81
2022-10-22T10:13:35.861Z,18.04
2022-10-22T10:16:56.170Z,17.83
2022-10-22T10:20:01.491Z,17.95
2022-10-22T10:23:25.478Z,17.24
2022-10-22T10:26:33.514Z,17.54
2022-10-22T10:29:54.114Z,17.65
2022-10-22T10:33:22.413Z,18.00
2022-10-22T10:36:27.709Z,17.91
2022-10-22T10:39:35.864Z,17.45
2022-10-22T10:42:41.008Z,18.34
2022-10-22T10:45:47.071Z,18.60
2022-10-22T10:48:51.310Z,17.82
2022-10-22T10:52:11.633Z,16.81
2022-10-22T10:55:15.252Z,18.06
2022-10-22T10:58:31.191Z,17.53
2022-10-22T11:01:45.413Z,18.22
2022-10-22T11:05:13.510Z,18.75
2022-10-22T11:08:17.618Z,17.94
2022-10-22T11:11:28.338Z,18.60
2022-10-22T11:14:33.237Z,19.56
2022-10-22T11:17:43.201Z,19.79
2022-10-22T11:21:03.939Z,19.41
2022-10-22T11:24:24.707Z,18.14
2022-10-22T11:27:37.514Z,19.28
2022-10-22T11:30:39.393Z,18.67
2022-10-22T11:34:05.121Z,18.12
2022-10-22T11:37:17.478Z,18.46
2022-10-22T11:40:20.860Z,18.65
2022-10-22T11:43:46.203Z,18.84
2022-10-22T11:46:58.288Z,18.27
2022-10-22T11:50:17.419Z,18.33
2022-10-22T11:53:25.472Z,18.16
2022-10-22T11:56:28.350Z,18.56
2022-10-22T11:59:52.453Z,20.07
2022-10-22T12:03:02.371Z,19.84
2022-10-22T12:06:04.585Z,19.88
2022-10-22T12:09:07.236Z,18.65
2022-10-22T12:12:15.604Z,19.12
2022-10-22T12:15:21.325Z,19.10
2022-10-22T12:18:24.226Z,18.99
2022-10-22T12:21:26.347Z,18.12
2022-10-22T12:24:32.206Z,17.53
2022-10-22T12:27:35.146Z,17.68
2022-10-22T12:30:37.019Z,19.56
2022-10-22T12:33:38.888Z,19.43
2022-10-22T12:36:40.751Z,19.08
2022-10-22T12:39:42.743Z,18.91
2022-10-22T12:42:48.631Z,19.25
2022-10-22T12:45:50.590Z,18.53
2022-10-22T12:48:52.672Z,18.76
2022-10-22T12:51:54.846Z,19.90
2022-10-22T12:54:56.690Z,19.49
2022-10-22T12:57:58.762Z,19.25
2022-10-22T13:01:03.624Z,18.09
2022-10-22T13:04:07.375Z,18.35
2022-10-22T13:07:12.296Z,19.18
2022-10-22T13:10:22.075Z,19.37
2022-10-22T13:13:31.041Z,19.20
2022-10-22T13:16:33.381Z,18.16
2022-10-22T13:19:47.711Z,17.54
2022-10-22T13:22:53.435Z,18.58
2022-10-22T13:25:59.572Z,18.74
2022-10-22T13:29:01.888Z,18.65
2022-10-22T13:32:03.790Z,18.96
2022-10-22T13:35:05.845Z,18.32
2022-10-22T13:38:15.265Z,18.07
2022-10-22T13:41:21.961Z,17.62
2022-10-22T13:44:23.805Z,17.77
2022-10-22T13:47:29.167Z,17.86
2022-10-22T13:50:30.957Z,18.55
2022-10-22T13:53:32.962Z,17.67
2022-10-22T13:56:34.932Z,17.03
2022-10-22T13:59:36.832Z,16.88
2022-10-22T14:02:39.313Z,18.02
2022-10-22T14:05:41.370Z,18.76
2022-10-22T14:08:44.085Z,18.45
2022-10-22T14:11:45.995Z,18.37
2022-10-22T14:14:47.910Z,18.07
2022-10-22T14:17:52.449Z,18.09
2022-10-22T14:20:58.649Z,17.41
2022-10-22T14:24:00.642Z,18.36
2022-10-22T14:27:02.515Z,17.70
2022-10-22T14:30:04.855Z,17.99
2022-10-22T14:33:17.593Z,17.46
2022-10-22T14:36:19.520Z,17.76
2022-10-22T14:39:21.707Z,17.99
2022-10-22T14:42:23.528Z,17.67
2022-10-22T14:45:26.241Z,17.76
2022-10-22T14:48:28.187Z,17.84
2022-10-22T14:51:30.200Z,18.21
2022-10-22T14:54:33.199Z,18.83
2022-10-22T14:57:35.111Z,18.10
2022-10-22T15:00:37.264Z,17.52
2022-10-22T15:03:39.131Z,17.30
2022-10-22T15:06:41.154Z,17.20
2022-10-22T15:09:42.999Z,16.97
2022-10-22T15:12:44.925Z,16.34
2022-10-22T15:15:46.821Z,16.92
2022-10-22T15:18:48.736Z,17.35
2022-10-22T15:21:50.825Z,17.25
2022-10-22T15:24:53.685Z,17.06
2022-10-22T15:27:59.640Z,16.99
2022-10-22T15:31:06.987Z,16.48
2022-10-22T15:34:08.827Z,17.24
2022-10-22T15:37:11.619Z,17.24
2022-10-22T15:40:13.725Z,17.33
2022-10-22T15:43:15.519Z,15.98
2022-10-22T15:46:18.048Z,16.37
2022-10-22T15:49:19.859Z,16.39
2022-10-22T15:52:21.882Z,15.37
2022-10-22T15:55:23.838Z,15.95
2022-10-22T15:58:25.935Z,15.43
2022-10-22T16:01:27.866Z,15.12
2022-10-22T16:04:29.864Z,15.78
2022-10-22T16:07:31.696Z,16.44
2022-10-22T16:10:33.584Z,15.36
2022-10-22T16:13:37.285Z,16.54
2022-10-22T16:16:42.730Z,15.93
2022-10-22T16:19:44.902Z,16.21
2022-10-22T16:22:49.532Z,15.40
2022-10-22T16:25:51.436Z,15.36
2022-10-22T16:28:53.219Z,16.09
2022-10-22T16:31:55.289Z,15.57
2022-10-22T16:34:57.208Z,15.74
2022-10-22T16:37:59.097Z,15.57
2022-10-22T16:41:10.621Z,15.47
2022-10-22T16:44:13.375Z,14.95
2022-10-22T16:47:15.447Z,14.97
2022-10-22T16:50:17.505Z,14.60
2022-10-22T16:53:19.370Z,14.59
2022-10-22T16:56:21.371Z,14.52
2022-10-22T16:59:23.239Z,14.78
2022-10-22T17:02:25.201Z,14.69
2022-10-22T17:05:27.139Z,14.63
2022-10-22T17:08:28.923Z,15.19
2022-10-22T17:11:39.055Z,14.56
2022-10-22T17:14:42.227Z,14.22
2022-10-22T17:17:48.398Z,14.67
2022-10-22T17:20:50.389Z,15.51
2022-10-22T17:23:58.592Z,14.45
2022-10-22T17:27:00.766Z,14.30
2022-10-22T17:30:02.899Z,15.28
2022-10-22T17:33:08.107Z,14.82
2022-10-22T17:36:11.920Z,14.34
2022-10-22T17:39:15.730Z,15.00
2022-10-22T17:42:17.776Z,14.70
2022-10-22T17:45:20.053Z,15.22
2022-10-22T17:48:21.942Z,15.60
2022-10-22T17:51:23.998Z,14.97
2022-10-22T17:54:25.845Z,15.79
2022-10-22T17:57:27.644Z,14.16
2022-10-22T18:00:32.607Z,14.10
2022-10-22T18:03:34.922Z,14.19
2022-10-22T18:06:36.982Z,13.73
2022-10-22T18:09:39.125Z,15.01
2022-10-22T18:12:41.209Z,15.38
2022-10-22T18:15:43.234Z,16.03
2022-10-22T18:18:46.714Z,15.47
2022-10-22T18:21:48.892Z,14.83
2022-10-22T18:24:50.762Z,14.82
2022-10-22T18:27:52.783Z,14.09
2022-10-22T18:30:54.661Z,14.85
2022-10-22T18:33:56.916Z,14.39
2022-10-22T18:36:58.762Z,14.36
2022-10-22T18:40:00.590Z,14.48
2022-10-22T18:43:02.917Z,14.52
2022-10-22T18:46:07.986Z,14.55
2022-10-22T18:49:11.705Z,14.25
2022-10-22T18:52:13.544Z,14.77
2022-10-22T18:55:15.507Z,14.45
2022-10-22T18:58:18.140Z,14.46
2022-10-22T19:01:21.272Z,14.72
2022-10-22T19:04:23.178Z,14.79
2022-10-22T19:07:25.134Z,14.66
2022-10-22T19:10:26.991Z,14.71
2022-10-22T19:13:28.887Z,15.20
2022-10-22T19:16:30.813Z,15.08
2022-10-22T19:19:32.919Z,14.99
2022-10-22T19:22:34.918Z,15.02
2022-10-22T19:25:36.938Z,14.83
2022-10-22T19:28:39.045Z,13.99
2022-10-22T19:31:41.695Z,13.42
2022-10-22T19:34:44.368Z,14.72
2022-10-22T19:37:48.351Z,14.37
2022-10-22T19:40:51.368Z,14.58
2022-10-22T19:43:53.634Z,15.25
2022-10-22T19:46:55.483Z,14.42
2022-10-22T19:49:57.462Z,14.35
2022-10-22T19:52:59.726Z,14.01
2022-10-22T19:56:02.097Z,14.46
2022-10-22T19:59:05.852Z,14.14
2022-10-22T20:02:08.657Z,14.10
2022-10-22T20:05:10.641Z,14.34
2022-10-22T20:08:12.747Z,14.45
2022-10-22T20:11:18.755Z,14.18
2022-10-22T20:14:20.752Z,14.59
2022-10-22T20:17:22.667Z,14.67
2022-10-22T20:20:26.554Z,15.23
2022-10-22T20:23:28.750Z,14.17
2022-10-22T20:26:31.754Z,13.89
2022-10-22T20:29:36.372Z,14.47
2022-10-22T20:32:41.015Z,13.28
2022-10-22T20:35:43.249Z,13.17
2022-10-22T20:38:47.929Z,13.49
2022-10-22T20:41:50.207Z,13.30
2022-10-22T20:44:52.108Z,14.05
2022-10-22T20:48:02.001Z,13.32
2022-10-22T20:51:05.054Z,13.75
2022-10-22T20:54:07.655Z,13.03
2022-10-22T20:57:10.455Z,13.26
2022-10-22T21:00:12.774Z,12.68
2022-10-22T21:03:15.040Z,12.81
2022-10-22T21:06:17.040Z,13.62
2022-10-22T21:09:19.108Z,14.01
2022-10-22T21:12:21.110Z,12.80
2022-10-22T21:15:22.957Z,13.57
2022-10-22T21:18:25.004Z,13.28
2022-10-22T21:21:27.032Z,14.03
2022-10-22T21:24:28.895Z,14.16
2022-10-22T21:27:30.803Z,13.44
2022-10-22T21:30:32.642Z,12.71
2022-10-22T21:33:37.904Z,13.15
2022-10-22T21:36:40.598Z,13.50
2022-10-22T21:39:42.553Z,13.66
2022-10-22T21:42:44.738Z,12.93
2022-10-22T21:45:46.858Z,13.14
2022-10-22T21:48:58.451Z,12.71
2022-10-22T21:52:00.672Z,14.24
2022-10-22T21:55:02.513Z,14.71
2022-10-22T21:58:04.550Z,14.83
2022-10-22T22:01:06.442Z,14.62
2022-10-22T22:04:08.357Z,14.46
2022-10-22T22:07:10.229Z,13.10
2022-10-22T22:10:12.035Z,13.51
2022-10-22T22:13:13.849Z,13.97
2022-10-22T22:16:17.225Z,14.48
2022-10-22T22:19:19.086Z,14.44
2022-10-22T22:22:20.948Z,13.59
2022-10-22T22:25:22.871Z,13.35
2022-10-22T22:28:24.699Z,13.95
2022-10-22T22:31:27.996Z,14.29
2022-10-22T22:34:29.919Z,13.54
2022-10-22T22:37:31.768Z,13.10
2022-10-22T22:40:33.945Z,13.99
2022-10-22T22:43:36.505Z,14.12
2022-10-22T22:46:38.595Z,14.44
2022-10-22T22:49:40.776Z,14.34
2022-10-22T22:52:42.758Z,12.71
2022-10-22T22:55:44.860Z,13.38
2022-10-22T22:58:46.727Z,14.23
2022-10-22T23:01:49.263Z,13.77
2022-10-22T23:04:51.140Z,13.37
2022-10-22T23:07:53.035Z,14.08
2022-10-22T23:10:54.896Z,14.71
2022-10-22T23:13:57.717Z,13.28
2022-10-22T23:16:59.540Z,13.63
2022-10-22T23:20:01.458Z,13.44
2022-10-22T23:23:06.127Z,14.24
2022-10-22T23:26:09.270Z,13.34
2022-10-22T23:29:12.345Z,13.89
2022-10-22T23:32:17.133Z,14.35
2022-10-22T23:35:19.089Z,12.66
2022-10-22T23:38:21.018Z,14.26
2022-10-22T23:41:22.931Z,14.46
2022-10-22T23:44:24.951Z,14.44
2022-10-22T23:47:26.785Z,13.50
2022-10-22T23:50:28.846Z,14.15
2022-10-22T23:53:30.730Z,13.29
2022-10-22T23:56:32.900Z,14.02
2022-10-22T23:59:34.998Z,14.57
